Time;durP1;ratioP1;P1;durP2;ratioP2;P2;SDS_P1;SDS_P2;PMS_P1;PMS_P2;Temp;Humidity;BMP_temperature;BMP_pressure;BME280_temperature;BME280_humidity;BME280_pressure;Samples;Min_cycle;Max_cycle;Signal;HPM_P1;HPM_P2
2020/12/04 00:02:10;;;;;;;10.20;5.45;;;103.10;1945.60;;;;;;5106714;28;20039;-69
2020/12/04 00:04:36;;;;;;;7.28;4.43;;;103.00;1971.20;;;;;;5107220;28;20035;-70
2020/12/04 00:07:02;;;;;;;8.32;4.35;;;103.00;1971.20;;;;;;5107095;28;20439;-70
2020/12/04 00:09:28;;;;;;;7.68;4.30;;;103.20;1971.20;;;;;;5106233;28;20032;-70
2020/12/04 00:11:54;;;;;;;9.50;3.88;;;103.20;1971.20;;;;;;5105980;28;20027;-72
2020/12/04 00:14:20;;;;;;;8.68;4.03;;;103.10;1971.20;;;;;;5099205;28;20082;-69
2020/12/04 00:16:46;;;;;;;7.35;4.32;;;103.10;1971.20;;;;;;5101708;28;20032;-70
2020/12/04 00:19:11;;;;;;;7.07;4.15;;;103.20;1971.20;;;;;;5107230;28;20088;-70
2020/12/04 00:21:37;;;;;;;8.93;4.75;;;103.30;1945.60;;;;;;5101331;28;20059;-72
2020/12/04 00:24:03;;;;;;;10.48;5.10;;;103.30;1945.60;;;;;;5096531;28;20024;-71
2020/12/04 00:26:29;;;;;;;9.95;5.20;;;103.20;1971.20;;;;;;5096092;28;20028;-70
2020/12/04 00:28:55;;;;;;;10.07;5.00;;;103.10;1945.60;;;;;;5096234;28;20345;-69
2020/12/04 00:31:21;;;;;;;8.52;4.50;;;103.00;1971.20;;;;;;5096360;28;20107;-71
2020/12/04 00:33:46;;;;;;;10.35;4.90;;;103.10;1971.20;;;;;;5096367;28;20039;-70
2020/12/04 00:36:12;;;;;;;8.02;4.30;;;103.10;1971.20;;;;;;5096483;28;20039;-68
2020/12/04 00:38:38;;;;;;;8.30;4.32;;;103.20;1971.20;;;;;;5095943;28;20044;-69
2020/12/04 00:41:04;;;;;;;8.68;4.57;;;103.20;1971.20;;;;;;5095670;28;20081;-71
2020/12/04 00:43:30;;;;;;;8.07;4.60;;;103.20;1971.20;;;;;;5096521;28;20333;-70
2020/12/04 00:45:56;;;;;;;7.00;4.10;;;103.30;1971.20;;;;;;5095993;28;20028;-69
2020/12/04 00:48:22;;;;;;;7.50;4.53;;;103.20;1971.20;;;;;;5095636;28;20028;-70
2020/12/04 00:50:47;;;;;;;7.90;4.07;;;103.20;1945.60;;;;;;5096093;28;20406;-70
2020/12/04 00:53:13;;;;;;;7.38;4.13;;;103.00;1971.20;;;;;;5103943;28;20297;-70
2020/12/04 00:55:39;;;;;;;9.68;3.72;;;103.10;1971.20;;;;;;5106546;28;20053;-70
2020/12/04 00:58:05;;;;;;;7.40;4.35;;;103.10;1971.20;;;;;;5098353;28;20069;-71
2020/12/04 01:00:31;;;;;;;7.72;4.65;;;103.20;1971.20;;;;;;5096036;28;20381;-70
2020/12/04 01:02:56;;;;;;;9.27;4.00;;;103.00;1971.20;;;;;;5095362;28;20406;-69
2020/12/04 01:05:22;;;;;;;8.35;3.70;;;102.80;1996.80;;;;;;5095772;28;20032;-68
2020/12/04 01:07:48;;;;;;;8.18;3.83;;;102.60;1996.80;;;;;;5095444;28;20028;-68
2020/12/04 01:10:14;;;;;;;12.32;4.22;;;102.80;1996.80;;;;;;5095740;28;20432;-72
2020/12/04 01:12:42;;;;;;;9.00;4.10;;;102.80;1996.80;;;;;;5095575;28;20027;-68
2020/12/04 01:15:09;;;;;;;9.23;3.80;;;103.00;1996.80;;;;;;5095140;28;20381;-71
2020/12/04 01:17:36;;;;;;;12.75;4.22;;;103.00;1996.80;;;;;;5077739;28;20523;-71
2020/12/04 01:20:03;;;;;;;7.30;4.10;;;103.00;1996.80;;;;;;5095567;28;20119;-69
2020/12/04 01:22:31;;;;;;;6.00;3.40;;;102.90;1996.80;;;;;;5095394;28;20105;-70
2020/12/04 01:24:57;;;;;;;7.10;3.85;;;103.10;1996.80;;;;;;5095486;28;20024;-71
2020/12/04 01:27:23;;;;;;;6.13;3.47;;;103.20;1996.80;;;;;;5095367;28;20032;-71
2020/12/04 01:29:48;;;;;;;7.20;3.63;;;103.30;1971.20;;;;;;5095265;28;20034;-71
2020/12/04 01:32:14;;;;;;;6.13;3.33;;;103.30;1971.20;;;;;;5094998;28;20035;-69
2020/12/04 01:34:40;;;;;;;7.30;3.90;;;128.00;1996.80;;;;;;5095295;28;20109;-72
2020/12/04 01:37:06;;;;;;;7.82;3.85;;;128.00;1971.20;;;;;;5096979;28;20032;-71
2020/12/04 01:39:31;;;;;;;8.90;3.70;;;128.00;1971.20;;;;;;5095520;28;20028;-69
2020/12/04 01:41:57;;;;;;;7.70;3.75;;;128.00;1971.20;;;;;;5095108;28;20085;-71
2020/12/04 01:44:23;;;;;;;6.88;3.88;;;103.30;1971.20;;;;;;5094828;28;20031;-70
2020/12/04 01:46:52;;;;;;;7.07;3.85;;;103.20;1945.60;;;;;;5095532;28;20436;-69
2020/12/04 01:49:18;;;;;;;;;;;103.20;1971.20;;;;;;5095803;28;20031;-69
2020/12/04 01:51:44;;;;;;;7.00;3.42;;;103.20;1971.20;;;;;;5095043;28;19908;-71
2020/12/04 01:54:12;;;;;;;4.95;2.83;;;103.30;1945.60;;;;;;5094631;28;20393;-71
2020/12/04 01:56:38;;;;;;;6.10;3.28;;;103.30;1945.60;;;;;;5094741;28;20028;-68
2020/12/04 01:59:07;;;;;;;7.00;3.70;;;128.00;1971.20;;;;;;5094601;28;20027;-68
2020/12/04 02:01:38;;;;;;;8.48;3.85;;;103.30;1945.60;;;;;;5094942;28;20400;-71
2020/12/04 02:04:07;;;;;;;6.32;3.63;;;103.10;1945.60;;;;;;5095324;28;20085;-71
2020/12/04 02:06:57;;;;;;;6.88;3.50;;;102.50;1971.20;;;;;;5094885;28;20085;-71
2020/12/04 02:09:29;;;;;;;6.30;3.47;;;77.70;2048.00;;;;;;5095074;28;20042;-70
2020/12/04 02:11:58;;;;;;;7.72;3.60;;;77.60;2048.00;;;;;;5094604;28;20020;-71
2020/12/04 02:14:24;;;;;;;9.77;3.33;;;77.40;2048.00;;;;;;5094883;28;20367;-71
2020/12/04 02:17:03;;;;;;;6.65;3.45;;;77.60;2048.00;;;;;;5094362;28;20349;-71
2020/12/04 02:19:34;;;;;;;7.07;3.97;;;77.50;2022.40;;;;;;5094744;28;20032;-70
2020/12/04 02:22:00;;;;;;;5.75;3.10;;;77.60;2048.00;;;;;;5094786;28;20048;-70
2020/12/04 02:24:26;;;;;;;6.90;3.78;;;77.70;2022.40;;;;;;5094490;28;20032;-69
2020/12/04 02:26:53;;;;;;;8.77;4.28;;;102.40;1996.80;;;;;;5094588;28;20123;-70
2020/12/04 02:29:19;;;;;;;7.97;3.28;;;102.40;2022.40;;;;;;5094845;28;20028;-69
2020/12/04 02:31:45;;;;;;;6.65;3.85;;;102.50;2022.40;;;;;;5095043;28;20101;-69
2020/12/04 02:34:11;;;;;;;6.05;3.33;;;102.50;2022.40;;;;;;5095023;28;20028;-68
2020/12/04 02:36:37;;;;;;;5.93;3.35;;;102.60;2022.40;;;;;;5094966;28;20051;-69
2020/12/04 02:39:03;;;;;;;6.25;3.30;;;102.70;2022.40;;;;;;5095006;28;20032;-69
2020/12/04 02:41:29;;;;;;;6.75;3.10;;;102.70;1971.20;;;;;;5093826;28;20508;-71
2020/12/04 02:43:55;;;;;;;6.22;3.42;;;102.70;1996.80;;;;;;5094524;28;20057;-70
2020/12/04 02:46:21;;;;;;;5.75;2.95;;;102.80;1996.80;;;;;;5094712;28;20036;-68
2020/12/04 02:48:46;;;;;;;5.80;3.05;;;102.60;2022.40;;;;;;5094693;28;20032;-69
2020/12/04 02:51:12;;;;;;;5.97;3.40;;;102.50;1996.80;;;;;;5096536;28;20445;-71
2020/12/04 02:53:38;;;;;;;6.15;3.50;;;102.40;2022.40;;;;;;5098199;28;20031;-70
2020/12/04 02:56:04;;;;;;;7.43;3.55;;;102.40;2022.40;;;;;;5098184;28;20081;-70
2020/12/04 02:58:31;;;;;;;6.22;3.00;;;77.70;2048.00;;;;;;5098421;28;20028;-69
2020/12/04 03:00:57;;;;;;;7.28;3.05;;;77.70;2048.00;;;;;;5098224;28;20028;-68
2020/12/04 03:03:23;;;;;;;5.72;3.30;;;102.40;2022.40;;;;;;5098145;28;20106;-70
2020/12/04 03:05:49;;;;;;;6.22;3.88;;;77.70;2022.40;;;;;;5097406;28;20115;-69
2020/12/04 03:08:14;;;;;;;5.95;3.33;;;77.70;2048.00;;;;;;5098175;28;20028;-70
2020/12/04 03:10:40;;;;;;;7.97;3.60;;;77.70;2022.40;;;;;;5098269;28;20081;-69
2020/12/04 03:13:06;;;;;;;5.30;2.72;;;77.70;2022.40;;;;;;5097958;28;20023;-70
2020/12/04 03:15:32;;;;;;;6.25;3.60;;;102.50;2022.40;;;;;;5097493;28;20701;-70
2020/12/04 03:17:57;;;;;;;6.13;3.22;;;102.50;2022.40;;;;;;5079897;28;20115;-69
2020/12/04 03:20:23;;;;;;;5.35;3.13;;;102.50;1996.80;;;;;;5115953;28;20039;-69
2020/12/04 03:22:49;;;;;;;5.70;2.95;;;102.50;1996.80;;;;;;5118185;28;20043;-70
2020/12/04 03:25:15;;;;;;;7.70;3.47;;;102.60;1996.80;;;;;;5118462;28;20035;-72
2020/12/04 03:27:40;;;;;;;5.28;2.83;;;102.60;1996.80;;;;;;5117775;28;20055;-70
2020/12/04 03:30:06;;;;;;;7.40;3.53;;;102.70;1971.20;;;;;;5118034;28;20028;-69
2020/12/04 03:32:32;;;;;;;6.45;3.60;;;102.70;1971.20;;;;;;5117668;28;20421;-69
2020/12/04 03:34:59;;;;;;;6.13;3.33;;;102.40;1996.80;;;;;;5118237;28;20032;-69
2020/12/04 03:37:27;;;;;;;5.85;3.30;;;102.40;1996.80;;;;;;5118052;28;20055;-70
2020/12/04 03:39:53;;;;;;;6.87;3.37;;;77.70;2022.40;;;;;;5117223;28;20027;-69
2020/12/04 03:42:19;;;;;;;6.03;2.90;;;77.70;2022.40;;;;;;5117889;28;20076;-70
2020/12/04 03:44:44;;;;;;;5.15;3.13;;;77.70;1996.80;;;;;;5117556;28;20027;-69
2020/12/04 03:47:10;;;;;;;5.63;3.15;;;77.70;2022.40;;;;;;5117850;28;20031;-68
2020/12/04 03:49:36;;;;;;;6.57;2.95;;;102.40;2022.40;;;;;;5117697;28;20111;-70
2020/12/04 03:52:02;;;;;;;6.85;2.80;;;102.40;1996.80;;;;;;5117517;28;20028;-70
2020/12/04 03:54:27;;;;;;;6.70;3.08;;;77.70;2022.40;;;;;;5117321;28;20055;-70
2020/12/04 03:56:53;;;;;;;5.57;2.92;;;102.40;2022.40;;;;;;5117843;28;20114;-69
2020/12/04 03:59:19;;;;;;;5.93;3.10;;;102.40;2022.40;;;;;;5116742;28;20024;-71
2020/12/04 04:01:45;;;;;;;5.28;2.92;;;102.50;2022.40;;;;;;5116441;28;20031;-71
2020/12/04 04:04:11;;;;;;;6.65;3.38;;;102.60;2022.40;;;;;;5117226;28;20032;-69
2020/12/04 04:06:36;;;;;;;7.68;3.20;;;102.70;2022.40;;;;;;5117066;28;20369;-69
2020/12/04 04:09:03;;;;;;;8.25;3.10;;;102.80;2022.40;;;;;;5116669;28;20026;-70
2020/12/04 04:11:28;;;;;;;8.70;2.97;;;102.90;1996.80;;;;;;5117147;28;20019;-68
2020/12/04 04:13:54;;;;;;;13.15;7.18;;;102.80;2022.40;;;;;;5117105;28;20033;-71
2020/12/04 04:16:20;;;;;;;9.63;4.25;;;102.80;1996.80;;;;;;5116767;28;20051;-71
2020/12/04 04:18:45;;;;;;;21.90;15.07;;;102.60;2022.40;;;;;;5117085;28;20023;-71
2020/12/04 04:21:12;;;;;;;8.50;4.00;;;102.70;1996.80;;;;;;5117056;28;20051;-69
2020/12/04 04:23:39;;;;;;;5.20;2.78;;;102.70;2022.40;;;;;;5117252;28;20030;-68
2020/12/04 04:26:05;;;;;;;5.82;3.03;;;102.60;2022.40;;;;;;5116660;28;20088;-68
2020/12/04 04:28:31;;;;;;;4.95;2.75;;;102.60;2022.40;;;;;;5116848;28;20067;-69
2020/12/04 04:30:57;;;;;;;8.45;3.72;;;102.70;2022.40;;;;;;5116664;28;20305;-69
2020/12/04 04:33:23;;;;;;;9.38;2.88;;;102.80;2048.00;;;;;;5116397;28;20030;-69
2020/12/04 04:35:49;;;;;;;5.55;3.35;;;103.10;2022.40;;;;;;5116940;28;20042;-69
2020/12/04 04:38:15;;;;;;;9.15;3.08;;;103.10;2022.40;;;;;;5116584;28;20053;-69
2020/12/04 04:40:41;;;;;;;7.20;2.92;;;103.00;1996.80;;;;;;5116749;28;20027;-69
2020/12/04 04:43:17;;;;;;;9.15;2.92;;;102.70;2022.40;;;;;;5116725;28;20031;-71
2020/12/04 04:45:45;;;;;;;7.57;2.70;;;102.80;1996.80;;;;;;5116830;28;20290;-69
2020/12/04 04:48:25;;;;;;;5.40;2.63;;;102.60;1996.80;;;;;;5116125;28;20117;-71
2020/12/04 04:50:56;;;;;;;4.72;2.60;;;77.70;2022.40;;;;;;5116711;28;20642;-69
2020/12/04 04:53:24;;;;;;;5.43;3.17;;;102.40;2022.40;;;;;;5116411;28;20088;-69
2020/12/04 04:55:51;;;;;;;10.30;3.75;;;102.50;2022.40;;;;;;5116033;28;20114;-71
2020/12/04 04:58:18;;;;;;;6.43;3.08;;;102.60;1996.80;;;;;;5097552;28;20107;-71
2020/12/04 05:00:43;;;;;;;5.25;2.65;;;102.60;1996.80;;;;;;5095786;28;20054;-71
2020/12/04 05:03:10;;;;;;;6.70;2.60;;;102.40;2048.00;;;;;;5095859;28;20413;-70
2020/12/04 05:05:47;;;;;;;5.97;3.15;;;102.40;2048.00;;;;;;5095565;28;20479;-71
2020/12/04 05:08:13;;;;;;;7.20;3.00;;;102.40;2048.00;;;;;;5095896;28;20404;-70
2020/12/04 05:10:39;;;;;;;7.85;2.97;;;77.70;2073.60;;;;;;5095403;28;20024;-68
2020/12/04 05:13:05;;;;;;;5.43;3.17;;;102.50;2022.40;;;;;;5095479;28;20024;-69
2020/12/04 05:15:31;;;;;;;6.93;4.07;;;102.50;2022.40;;;;;;5095676;28;20114;-69
2020/12/04 05:18:15;;;;;;;6.07;3.20;;;102.60;2022.40;;;;;;5095377;28;20028;-71
2020/12/04 05:20:43;;;;;;;7.57;3.47;;;102.50;2022.40;;;;;;5095451;28;20421;-71
2020/12/04 05:23:10;;;;;;;8.43;4.00;;;102.60;2022.40;;;;;;5095538;28;20063;-69
2020/12/04 05:25:40;;;;;;;4.70;2.55;;;102.50;2022.40;;;;;;5095668;28;20055;-72
2020/12/04 05:28:16;;;;;;;11.95;2.90;;;102.40;2022.40;;;;;;5095427;28;20122;-70
2020/12/04 05:30:44;;;;;;;5.78;2.90;;;77.50;2022.40;;;;;;5097778;28;20031;-70
2020/12/04 05:33:11;;;;;;;6.10;3.15;;;77.60;2048.00;;;;;;5115269;28;20024;-71
2020/12/04 05:35:37;;;;;;;9.23;5.05;;;77.60;2073.60;;;;;;5115726;28;20037;-70
2020/12/04 05:38:17;;;;;;;13.68;3.45;;;77.60;2048.00;;;;;;5115406;28;20019;-70
2020/12/04 05:40:51;;;;;;;7.13;3.28;;;77.70;2048.00;;;;;;5115841;28;20023;-70
2020/12/04 05:43:34;;;;;;;7.78;3.33;;;77.60;2048.00;;;;;;5115898;28;20068;-70
2020/12/04 05:46:23;;;;;;;5.05;2.97;;;77.70;2073.60;;;;;;5115695;28;20089;-70
2020/12/04 05:49:07;;;;;;;;;;;102.40;2099.20;;;;;;5116163;28;20039;-70
2020/12/04 05:51:34;;;;;;;7.88;3.75;;;77.70;2073.60;;;;;;5115279;28;19908;-70
2020/12/04 05:54:02;;;;;;;7.38;3.60;;;77.60;2048.00;;;;;;5115640;28;20111;-71
2020/12/04 05:56:32;;;;;;;6.68;3.38;;;77.70;2099.20;;;;;;5115601;28;20063;-70
2020/12/04 05:59:01;;;;;;;6.15;3.50;;;77.60;2073.60;;;;;;5115461;28;20028;-69
2020/12/04 06:01:27;;;;;;;;;;;77.50;2073.60;;;;;;5115419;28;20054;-68
2020/12/04 06:03:54;;;;;;;39.78;17.65;;;77.40;2099.20;;;;;;5115251;28;19943;-70
2020/12/04 06:06:33;;;;;;;19.35;10.63;;;77.50;2099.20;;;;;;5115114;28;20088;-68
2020/12/04 06:09:07;;;;;;;29.20;16.25;;;77.50;2099.20;;;;;;5115639;28;20106;-70
2020/12/04 06:11:38;;;;;;;110.78;56.28;;;77.60;2073.60;;;;;;5115426;28;20024;-70
2020/12/04 06:14:17;;;;;;;56.80;40.08;;;77.70;2073.60;;;;;;5115499;28;20456;-71
2020/12/04 06:16:44;;;;;;;50.88;32.88;;;102.50;2073.60;;;;;;5115712;28;20051;-71
2020/12/04 06:19:29;;;;;;;40.60;28.13;;;102.80;2073.60;;;;;;5115177;28;20066;-71
2020/12/04 06:22:04;;;;;;;57.00;38.72;;;103.20;2099.20;;;;;;5114921;28;20097;-70
2020/12/04 06:24:30;;;;;;;54.08;28.63;;;103.30;2022.40;;;;;;5097840;28;20648;-70
2020/12/04 06:26:56;;;;;;;42.95;19.48;;;103.20;2022.40;;;;;;5098868;28;20032;-69
2020/12/04 06:29:22;;;;;;;20.15;10.63;;;103.30;2048.00;;;;;;5098475;28;20020;-70
2020/12/04 06:31:47;;;;;;;25.08;13.00;;;128.40;2073.60;;;;;;5101139;28;20337;-69
2020/12/04 06:34:18;;;;;;;29.38;19.73;;;128.10;1996.80;;;;;;5098756;28;20031;-71
2020/12/04 06:36:46;;;;;;;48.92;27.73;;;128.00;2022.40;;;;;;5098476;28;20028;-69
2020/12/04 06:39:30;;;;;;;26.60;15.40;;;128.10;1996.80;;;;;;5098494;28;20024;-69
2020/12/04 06:41:56;;;;;;;11.35;4.55;;;128.20;1996.80;;;;;;5098504;28;20020;-69
2020/12/04 06:44:24;;;;;;;43.47;27.08;;;128.10;1996.80;;;;;;5098686;28;20027;-70
2020/12/04 06:47:00;;;;;;;15.83;3.00;;;128.00;2022.40;;;;;;5098070;28;20032;-70
2020/12/04 06:49:35;;;;;;;5.32;3.22;;;128.50;2022.40;;;;;;5098676;28;20035;-70
2020/12/04 06:52:14;;;;;;;8.93;3.70;;;128.60;2022.40;;;;;;5098497;28;20043;-69
2020/12/04 06:54:46;;;;;;;20.25;10.27;;;128.80;1996.80;;;;;;5097926;28;20330;-70
2020/12/04 06:57:14;;;;;;;83.45;51.58;;;153.70;1996.80;;;;;;5111433;27;20031;-69
2020/12/04 06:59:41;;;;;;;28.73;8.70;;;154.00;1971.20;;;;;;5129141;27;20076;-71
2020/12/04 07:02:46;;;;;;;20.50;14.07;;;154.00;1945.60;;;;;;5119188;27;20402;-70
2020/12/04 07:05:42;;;;;;;19.42;8.77;;;154.20;1920.00;;;;;;5106407;27;20196;-70
2020/12/04 07:08:40;;;;;;;13.20;6.22;;;154.30;1945.60;;;;;;5133644;27;20110;-71
2020/12/04 07:11:06;;;;;;;15.88;8.07;;;154.50;1894.40;;;;;;5117818;27;20412;-72
2020/12/04 07:13:38;;;;;;;15.73;4.88;;;179.30;1894.40;;;;;;5117875;28;20019;-71
2020/12/04 07:16:04;;;;;;;12.10;6.22;;;179.30;1868.80;;;;;;5118398;28;20069;-73
2020/12/04 07:18:30;;;;;;;18.17;5.05;;;179.50;1868.80;;;;;;5117824;28;20027;-72
2020/12/04 07:20:56;;;;;;;29.23;5.80;;;179.50;1868.80;;;;;;5116814;28;20030;-71
2020/12/04 07:23:22;;;;;;;15.38;5.30;;;179.50;1843.20;;;;;;5117411;28;20027;-72
2020/12/04 07:25:48;;;;;;;30.20;4.47;;;179.60;1868.80;;;;;;5117537;28;20034;-71
2020/12/04 07:28:13;;;;;;;20.27;3.67;;;179.70;1817.60;;;;;;5135552;27;20077;-70
2020/12/04 07:30:39;;;;;;;20.33;3.60;;;179.70;1843.20;;;;;;5138376;27;20066;-72
2020/12/04 07:33:05;;;;;;;10.52;3.50;;;179.80;1843.20;;;;;;5138143;27;20023;-70
2020/12/04 07:35:31;;;;;;;12.88;3.45;;;180.00;1817.60;;;;;;5138211;27;20066;-72
2020/12/04 07:37:57;;;;;;;12.18;3.10;;;180.00;1817.60;;;;;;5138504;27;20310;-72
2020/12/04 07:40:23;;;;;;;11.52;3.33;;;204.80;1843.20;;;;;;5134427;27;20023;-70
2020/12/04 07:42:50;;;;;;;17.60;3.15;;;204.90;1792.00;;;;;;5117380;28;20054;-68
2020/12/04 07:45:17;;;;;;;9.18;3.50;;;204.90;1766.40;;;;;;5117515;28;20027;-69
2020/12/04 07:47:43;;;;;;;7.55;3.22;;;204.90;1766.40;;;;;;5117813;28;20062;-70
2020/12/04 07:50:11;;;;;;;5.90;2.90;;;204.90;1766.40;;;;;;5117533;28;20023;-68
2020/12/04 07:52:49;;;;;;;6.05;3.13;;;204.90;1766.40;;;;;;5117406;28;20026;-70
2020/12/04 07:55:17;;;;;;;9.80;2.70;;;205.00;1740.80;;;;;;5117024;28;20673;-72
2020/12/04 07:58:10;;;;;;;6.18;3.42;;;205.00;1766.40;;;;;;5117083;28;20038;-71
2020/12/04 08:00:36;;;;;;;20.27;3.20;;;205.10;1740.80;;;;;;5107213;28;20492;-71
2020/12/04 08:03:03;;;;;;;12.52;5.93;;;205.00;1740.80;;;;;;5116848;28;20106;-72
2020/12/04 08:05:34;;;;;;;8.88;3.17;;;205.00;1740.80;;;;;;5117034;28;20069;-69
2020/12/04 08:08:00;;;;;;;10.57;4.95;;;205.10;1740.80;;;;;;5113311;28;20028;-71
2020/12/04 08:10:29;;;;;;;7.75;3.40;;;205.10;1740.80;;;;;;5104686;28;20028;-70
2020/12/04 08:12:57;;;;;;;21.40;5.15;;;205.00;1740.80;;;;;;5104323;28;20030;-70
2020/12/04 08:15:23;;;;;;;7.27;4.40;;;205.00;1740.80;;;;;;5105513;28;20028;-70
2020/12/04 08:18:04;;;;;;;28.98;7.05;;;205.00;1740.80;;;;;;5107006;28;20015;-71
2020/12/04 08:20:30;;;;;;;12.80;3.75;;;204.90;1715.20;;;;;;5107504;28;20031;-70
2020/12/04 08:22:56;;;;;;;17.27;6.00;;;180.10;1740.80;;;;;;5107600;27;20366;-69
2020/12/04 08:25:29;;;;;;;9.27;5.10;;;180.10;1740.80;;;;;;5109234;27;20026;-72
2020/12/04 08:27:56;;;;;;;9.32;5.10;;;180.10;1715.20;;;;;;5095201;28;20032;-69
2020/12/04 08:30:24;;;;;;;25.45;6.68;;;179.90;1715.20;;;;;;5096568;28;20035;-69
2020/12/04 08:32:56;;;;;;;13.85;7.40;;;179.80;1740.80;;;;;;5118409;28;20020;-70
2020/12/04 08:35:35;;;;;;;24.58;4.85;;;180.00;1740.80;;;;;;5114322;28;20024;-72
2020/12/04 08:38:15;;;;;;;8.82;3.63;;;204.80;1740.80;;;;;;5099375;28;20051;-68
2020/12/04 08:40:45;;;;;;;11.18;3.42;;;204.90;1740.80;;;;;;5115644;28;20539;-70
2020/12/04 08:43:18;;;;;;;18.30;8.27;;;205.00;1715.20;;;;;;5118830;28;20032;-69
2020/12/04 08:45:49;;;;;;;15.40;7.55;;;205.10;1715.20;;;;;;5117669;28;20031;-71
2020/12/04 08:48:25;;;;;;;23.15;7.18;;;205.20;1740.80;;;;;;5117428;28;20055;-72
2020/12/04 08:50:54;;;;;;;13.23;3.58;;;205.10;1715.20;;;;;;5118076;28;20084;-69
2020/12/04 08:53:21;;;;;;;6.13;2.78;;;205.10;1689.60;;;;;;5111550;28;20023;-72
2020/12/04 08:55:52;;;;;;;11.77;5.03;;;205.10;1715.20;;;;;;5108950;28;20431;-70
2020/12/04 08:58:19;;;;;;;16.10;6.57;;;205.00;1689.60;;;;;;5105126;28;20421;-71
2020/12/04 09:00:47;;;;;;;13.20;6.70;;;205.00;1715.20;;;;;;5108070;28;20039;-71
2020/12/04 09:03:13;;;;;;;10.68;5.10;;;204.90;1715.20;;;;;;5107021;28;20016;-71
2020/12/04 09:05:39;;;;;;;11.20;6.30;;;205.10;1689.60;;;;;;5107978;27;20087;-69
2020/12/04 09:08:06;;;;;;;14.90;6.28;;;205.10;1689.60;;;;;;5125720;27;20040;-71
2020/12/04 09:10:32;;;;;;;73.43;52.80;;;204.90;1715.20;;;;;;5106371;28;20016;-70
2020/12/04 09:12:58;;;;;;;87.43;48.08;;;204.90;1715.20;;;;;;5107677;28;20020;-72
2020/12/04 09:15:27;;;;;;;45.25;33.25;;;204.90;1689.60;;;;;;5107518;28;20020;-71
2020/12/04 09:17:53;;;;;;;43.85;23.92;;;205.00;1689.60;;;;;;5106153;28;20030;-70
2020/12/04 09:20:19;;;;;;;174.20;96.45;;;204.90;1689.60;;;;;;5106597;28;20027;-71
2020/12/04 09:22:45;;;;;;;95.70;59.35;;;204.90;1689.60;;;;;;5098928;28;20130;-71
2020/12/04 09:25:13;;;;;;;160.10;102.95;;;204.90;1715.20;;;;;;5097385;28;20221;-69
2020/12/04 09:27:40;;;;;;;113.53;64.57;;;205.10;1715.20;;;;;;5096843;28;20048;-69
2020/12/04 09:30:09;;;;;;;89.13;51.75;;;205.20;1689.60;;;;;;5097222;28;20026;-71
2020/12/04 09:32:35;;;;;;;149.20;88.93;;;205.20;1664.00;;;;;;5110109;28;20371;-71
2020/12/04 09:35:02;;;;;;;95.93;65.57;;;205.00;1689.60;;;;;;5114018;28;20302;-69
2020/12/04 09:37:33;;;;;;;111.05;75.72;;;205.20;1664.00;;;;;;5115955;28;20344;-70
2020/12/04 09:40:05;;;;;;;49.55;34.25;;;205.20;1664.00;;;;;;5116664;28;20024;-71
2020/12/04 09:42:31;;;;;;;55.15;32.22;;;205.30;1664.00;;;;;;5116328;28;20314;-69
2020/12/04 09:44:57;;;;;;;32.58;24.70;;;205.20;1664.00;;;;;;5116448;28;20340;-69
2020/12/04 09:47:25;;;;;;;27.92;15.68;;;205.30;1664.00;;;;;;5117187;28;20425;-71
2020/12/04 09:49:51;;;;;;;41.35;31.50;;;205.30;1664.00;;;;;;5116230;28;20019;-69
2020/12/04 09:52:19;;;;;;;47.83;30.67;;;205.30;1664.00;;;;;;5117691;28;20027;-70
2020/12/04 09:54:47;;;;;;;23.90;15.70;;;205.40;1638.40;;;;;;5116607;28;20015;-72
2020/12/04 09:57:14;;;;;;;28.58;23.27;;;205.40;1664.00;;;;;;5117669;28;20046;-71
2020/12/04 09:59:40;;;;;;;10.88;8.00;;;205.50;1638.40;;;;;;5116299;28;20316;-70
2020/12/04 10:02:07;;;;;;;26.98;21.10;;;205.30;1638.40;;;;;;5116992;28;20030;-71
2020/12/04 10:04:33;;;;;;;11.07;8.93;;;205.30;1638.40;;;;;;5117091;28;20019;-70
2020/12/04 10:07:00;;;;;;;12.65;9.70;;;205.40;1664.00;;;;;;5117694;28;20027;-71
2020/12/04 10:09:27;;;;;;;14.18;10.95;;;205.60;1612.80;;;;;;5117335;28;20439;-70
2020/12/04 10:11:54;;;;;;;12.80;9.60;;;205.60;1638.40;;;;;;5117395;28;20034;-70
2020/12/04 10:14:20;;;;;;;18.80;11.43;;;230.70;1587.20;;;;;;5117370;28;20023;-70
2020/12/04 10:16:48;;;;;;;10.77;8.27;;;231.00;1561.60;;;;;;5110430;28;20490;-71
2020/12/04 10:19:16;;;;;;;17.85;13.65;;;230.90;1561.60;;;;;;5105749;28;20015;-69
2020/12/04 10:21:43;;;;;;;8.60;6.50;;;256.00;1510.40;;;;;;5105475;28;20123;-70
2020/12/04 10:24:09;;;;;;;6.72;4.20;;;231.10;1536.00;;;;;;5105987;28;20294;-71
2020/12/04 10:26:43;;;;;;;8.68;5.78;;;231.20;1510.40;;;;;;5106984;28;20016;-69
2020/12/04 10:29:09;;;;;;;6.13;3.70;;;230.80;1536.00;;;;;;5106605;28;20028;-70
2020/12/04 10:31:36;;;;;;;9.77;3.97;;;230.60;1561.60;;;;;;5112035;28;20027;-69
2020/12/04 10:34:03;;;;;;;8.30;3.85;;;205.30;1638.40;;;;;;5104692;28;20020;-70
2020/12/04 10:36:29;;;;;;;6.65;3.40;;;205.40;1638.40;;;;;;5105207;28;20405;-71
2020/12/04 10:39:01;;;;;;;8.32;6.35;;;230.40;1638.40;;;;;;5104287;28;20020;-69
2020/12/04 10:41:32;;;;;;;5.63;3.00;;;230.90;1587.20;;;;;;5105616;28;20023;-70
2020/12/04 10:43:58;;;;;;;7.82;4.72;;;230.70;1561.60;;;;;;5104680;28;20333;-72
2020/12/04 10:46:24;;;;;;;10.68;7.00;;;231.30;1536.00;;;;;;5107299;28;20123;-69
2020/12/04 10:48:50;;;;;;;8.75;3.75;;;256.30;1536.00;;;;;;5104975;28;20421;-70
2020/12/04 10:51:23;;;;;;;8.55;5.82;;;256.80;1484.80;;;;;;5106689;28;20236;-69
2020/12/04 10:53:49;;;;;;;19.70;6.60;;;282.10;1484.80;;;;;;5104684;28;20332;-70
2020/12/04 10:56:22;;;;;;;15.98;7.55;;;282.40;1459.20;;;;;;5106758;28;20024;-71
2020/12/04 10:58:49;;;;;;;17.85;9.63;;;282.40;1433.60;;;;;;5104161;28;20329;-69
2020/12/04 11:01:19;;;;;;;11.43;8.15;;;307.20;1459.20;;;;;;5131264;28;20026;-68
2020/12/04 11:06:19;;;;;;;17.30;8.20;;;307.40;1408.00;;;;;;5136696;28;20030;-68
2020/12/04 11:08:46;;;;;;;11.77;5.15;;;307.40;1408.00;;;;;;5137648;28;20061;-68
2020/12/04 11:11:13;;;;;;;18.48;4.90;;;307.20;1433.60;;;;;;5137921;27;20414;-68
2020/12/04 11:13:39;;;;;;;10.90;6.03;;;282.30;1408.00;;;;;;5140074;27;20042;-68
2020/12/04 11:16:04;;;;;;;9.90;6.15;;;281.90;1433.60;;;;;;5119316;28;20413;-68
2020/12/04 11:18:30;;;;;;;12.27;6.40;;;282.00;1408.00;;;;;;5098526;28;20451;-68
2020/12/04 11:20:56;;;;;;;17.83;4.32;;;281.70;1433.60;;;;;;5127219;27;20023;-67
2020/12/04 11:23:22;;;;;;;7.93;4.80;;;256.40;1459.20;;;;;;5140494;27;20051;-69
2020/12/04 11:25:47;;;;;;;23.02;10.07;;;256.00;1484.80;;;;;;5135251;27;20382;-67
2020/12/04 11:28:13;;;;;;;15.15;5.20;;;256.10;1484.80;;;;;;5138418;27;20027;-68
2020/12/04 11:30:39;;;;;;;13.95;5.85;;;231.20;1484.80;;;;;;5139993;27;20023;-67
2020/12/04 11:33:05;;;;;;;14.55;7.53;;;231.10;1510.40;;;;;;5140492;27;20023;-69
2020/12/04 11:35:31;;;;;;;12.88;4.28;;;231.00;1536.00;;;;;;5140776;27;20416;-70
2020/12/04 11:37:59;;;;;;;10.88;4.78;;;230.40;1536.00;;;;;;5140449;27;20023;-69
2020/12/04 11:40:25;;;;;;;10.27;5.43;;;205.40;1587.20;;;;;;5121545;27;20027;-68
2020/12/04 11:42:51;;;;;;;12.00;4.70;;;205.40;1612.80;;;;;;5118912;28;20329;-68
2020/12/04 11:45:17;;;;;;;8.45;5.05;;;205.10;1612.80;;;;;;5119758;28;20024;-67
2020/12/04 11:47:44;;;;;;;7.32;3.92;;;204.90;1638.40;;;;;;5119761;28;20027;-69
2020/12/04 11:50:12;;;;;;;7.85;3.72;;;180.10;1664.00;;;;;;5119405;28;20028;-68
2020/12/04 11:52:38;;;;;;;15.07;8.93;;;179.80;1715.20;;;;;;5120091;28;20020;-68
2020/12/04 11:55:05;;;;;;;9.95;5.72;;;179.60;1715.20;;;;;;5119512;28;20085;-69
2020/12/04 11:57:31;;;;;;;26.55;8.68;;;179.80;1740.80;;;;;;5118381;28;20027;-68
2020/12/04 11:59:58;;;;;;;12.10;4.57;;;180.10;1715.20;;;;;;5119766;28;20033;-69
2020/12/04 12:02:23;;;;;;;8.30;4.30;;;180.10;1715.20;;;;;;5119742;28;20019;-68
2020/12/04 12:04:49;;;;;;;9.50;4.05;;;179.60;1715.20;;;;;;5119501;28;20370;-70
2020/12/04 12:07:15;;;;;;;9.40;5.38;;;179.30;1766.40;;;;;;5119175;28;20038;-68
2020/12/04 12:09:41;;;;;;;7.72;4.45;;;179.30;1766.40;;;;;;5100554;28;20031;-68
2020/12/04 12:12:07;;;;;;;48.28;26.77;;;154.30;1817.60;;;;;;5096154;28;20066;-68
2020/12/04 12:14:33;;;;;;;21.55;10.27;;;154.10;1843.20;;;;;;5106218;28;20436;-69
2020/12/04 12:16:59;;;;;;;7.57;4.85;;;154.30;1843.20;;;;;;5109029;28;20028;-68
2020/12/04 12:19:25;;;;;;;20.27;7.60;;;179.20;1817.60;;;;;;5106940;28;20108;-69
2020/12/04 12:21:51;;;;;;;15.15;5.65;;;179.40;1792.00;;;;;;5114814;28;20438;-68